sensor_id;sensor_type;location;lat;lon;timestamp;pressure;altitude;pressure_sealevel;temperature;humidity
15382;BME280;7789;51.364;12.358;2023-10-09T00:02:34;100845.56;;;14.16;100.00
15382;BME280;7789;51.364;12.358;2023-10-09T00:07:38;100835.97;;;14.15;100.00
15382;BME280;7789;51.364;12.358;2023-10-09T00:12:42;100822.56;;;14.18;100.00
15382;BME280;7789;51.364;12.358;2023-10-09T00:17:47;100821.03;;;14.15;100.00
15382;BME280;7789;51.364;12.358;2023-10-09T00:22:51;100815.38;;;14.20;100.00
15382;BME280;7789;51.364;12.358;2023-10-09T00:27:55;100818.97;;;14.19;100.00
15382;BME280;7789;51.364;12.358;2023-10-09T00:33:03;100804.59;;;14.23;100.00
15382;BME280;7789;51.364;12.358;2023-10-09T00:38:09;100801.53;;;14.18;100.00
15382;BME280;7789;51.364;12.358;2023-10-09T00:43:25;100775.94;;;14.20;100.00
15382;BME280;7789;51.364;12.358;2023-10-09T00:48:32;100763.63;;;14.20;100.00
15382;BME280;7789;51.364;12.358;2023-10-09T00:53:40;100756.44;;;14.22;100.00
15382;BME280;7789;51.364;12.358;2023-10-09T00:58:44;100740.09;;;14.19;100.00
15382;BME280;7789;51.364;12.358;2023-10-09T01:03:50;100736.66;;;14.18;100.00
15382;BME280;7789;51.364;12.358;2023-10-09T01:08:54;100749.38;;;14.23;100.00
15382;BME280;7789;51.364;12.358;2023-10-09T01:14:11;100751.84;;;14.24;100.00
15382;BME280;7789;51.364;12.358;2023-10-09T01:19:18;100740.53;;;14.24;100.00
15382;BME280;7789;51.364;12.358;2023-10-09T01:24:27;100723.31;;;14.29;100.00
15382;BME280;7789;51.364;12.358;2023-10-09T01:29:34;100709.50;;;14.27;100.00
15382;BME280;7789;51.364;12.358;2023-10-09T01:34:38;100687.91;;;14.24;100.00
15382;BME280;7789;51.364;12.358;2023-10-09T01:39:46;100682.38;;;14.27;100.00
15382;BME280;7789;51.364;12.358;2023-10-09T01:44:50;100674.78;;;14.24;100.00
15382;BME280;7789;51.364;12.358;2023-10-09T01:49:54;100654.41;;;14.26;100.00
15382;BME280;7789;51.364;12.358;2023-10-09T01:55:01;100650.94;;;14.25;100.00
15382;BME280;7789;51.364;12.358;2023-10-09T02:00:09;100650.53;;;14.30;100.00
15382;BME280;7789;51.364;12.358;2023-10-09T02:05:25;100635.72;;;14.29;100.00
15382;BME280;7789;51.364;12.358;2023-10-09T02:10:37;100606.66;;;14.30;100.00
15382;BME280;7789;51.364;12.358;2023-10-09T02:15:42;100598.59;;;14.32;100.00
15382;BME280;7789;51.364;12.358;2023-10-09T02:21:05;100583.22;;;14.37;100.00
15382;BME280;7789;51.364;12.358;2023-10-09T02:26:18;100571.59;;;14.39;100.00
15382;BME280;7789;51.364;12.358;2023-10-09T02:31:28;100566.88;;;14.43;100.00
15382;BME280;7789;51.364;12.358;2023-10-09T02:36:39;100556.06;;;14.46;100.00
15382;BME280;7789;51.364;12.358;2023-10-09T02:41:53;100553.81;;;14.51;100.00
15382;BME280;7789;51.364;12.358;2023-10-09T02:47:04;100546.59;;;14.53;100.00
15382;BME280;7789;51.364;12.358;2023-10-09T02:52:14;100543.00;;;14.54;100.00
15382;BME280;7789;51.364;12.358;2023-10-09T02:57:22;100542.00;;;14.55;100.00
15382;BME280;7789;51.364;12.358;2023-10-09T03:02:26;100547.00;;;14.58;100.00
15382;BME280;7789;51.364;12.358;2023-10-09T03:07:34;100528.13;;;14.62;100.00
15382;BME280;7789;51.364;12.358;2023-10-09T03:12:39;100508.91;;;14.62;100.00
15382;BME280;7789;51.364;12.358;2023-10-09T03:17:45;100514.97;;;14.62;100.00
15382;BME280;7789;51.364;12.358;2023-10-09T03:22:50;100520.09;;;14.64;100.00
15382;BME280;7789;51.364;12.358;2023-10-09T03:27:58;100514.69;;;14.65;100.00
15382;BME280;7789;51.364;12.358;2023-10-09T03:33:02;100506.09;;;14.63;100.00
15382;BME280;7789;51.364;12.358;2023-10-09T03:38:06;100496.97;;;14.67;100.00
15382;BME280;7789;51.364;12.358;2023-10-09T03:43:15;100502.22;;;14.67;100.00
15382;BME280;7789;51.364;12.358;2023-10-09T03:48:22;100491.81;;;14.66;100.00
15382;BME280;7789;51.364;12.358;2023-10-09T03:53:29;100482.41;;;14.63;100.00
15382;BME280;7789;51.364;12.358;2023-10-09T03:58:35;100465.69;;;14.64;100.00
15382;BME280;7789;51.364;12.358;2023-10-09T04:03:38;100460.56;;;14.63;100.00
15382;BME280;7789;51.364;12.358;2023-10-09T04:08:45;100464.84;;;14.64;100.00
15382;BME280;7789;51.364;12.358;2023-10-09T04:13:53;100449.41;;;14.69;100.00
15382;BME280;7789;51.364;12.358;2023-10-09T04:18:58;100434.31;;;14.71;100.00
15382;BME280;7789;51.364;12.358;2023-10-09T04:24:02;100421.84;;;14.73;100.00
15382;BME280;7789;51.364;12.358;2023-10-09T04:29:24;100421.53;;;14.76;100.00
15382;BME280;7789;51.364;12.358;2023-10-09T04:34:39;100428.47;;;14.77;100.00
15382;BME280;7789;51.364;12.358;2023-10-09T04:39:50;100419.72;;;14.76;100.00
15382;BME280;7789;51.364;12.358;2023-10-09T04:45:16;100414.47;;;14.76;100.00
15382;BME280;7789;51.364;12.358;2023-10-09T04:50:37;100401.31;;;14.76;100.00
15382;BME280;7789;51.364;12.358;2023-10-09T04:56:10;100388.13;;;14.76;100.00
15382;BME280;7789;51.364;12.358;2023-10-09T05:01:19;100387.34;;;14.76;100.00
15382;BME280;7789;51.364;12.358;2023-10-09T05:06:38;100388.31;;;14.75;100.00
15382;BME280;7789;51.364;12.358;2023-10-09T05:11:58;100393.56;;;14.75;100.00
15382;BME280;7789;51.364;12.358;2023-10-09T05:17:20;100384.84;;;14.74;100.00
15382;BME280;7789;51.364;12.358;2023-10-09T05:22:27;100375.28;;;14.73;100.00
15382;BME280;7789;51.364;12.358;2023-10-09T05:27:39;100378.75;;;14.74;100.00
15382;BME280;7789;51.364;12.358;2023-10-09T05:32:56;100383.03;;;14.75;100.00
15382;BME280;7789;51.364;12.358;2023-10-09T05:38:24;100383.19;;;14.73;100.00
15382;BME280;7789;51.364;12.358;2023-10-09T05:43:28;100382.06;;;14.76;100.00
15382;BME280;7789;51.364;12.358;2023-10-09T05:48:50;100381.91;;;14.77;100.00
15382;BME280;7789;51.364;12.358;2023-10-09T05:54:11;100387.56;;;14.82;100.00
15382;BME280;7789;51.364;12.358;2023-10-09T05:59:25;100374.22;;;14.83;100.00
15382;BME280;7789;51.364;12.358;2023-10-09T06:04:49;100373.09;;;14.86;100.00
15382;BME280;7789;51.364;12.358;2023-10-09T06:09:57;100401.59;;;14.90;100.00
15382;BME280;7789;51.364;12.358;2023-10-09T06:15:12;100407.53;;;14.92;100.00
15382;BME280;7789;51.364;12.358;2023-10-09T06:20:35;100410.69;;;14.96;100.00
15382;BME280;7789;51.364;12.358;2023-10-09T06:26:08;100399.03;;;14.98;100.00
15382;BME280;7789;51.364;12.358;2023-10-09T06:31:27;100402.19;;;15.02;100.00
15382;BME280;7789;51.364;12.358;2023-10-09T06:36:59;100415.03;;;15.05;100.00
15382;BME280;7789;51.364;12.358;2023-10-09T06:42:08;100414.91;;;15.06;100.00
15382;BME280;7789;51.364;12.358;2023-10-09T06:47:33;100425.94;;;15.10;100.00
15382;BME280;7789;51.364;12.358;2023-10-09T06:52:44;100412.63;;;15.11;100.00
15382;BME280;7789;51.364;12.358;2023-10-09T06:58:05;100433.25;;;15.16;100.00
15382;BME280;7789;51.364;12.358;2023-10-09T07:03:12;100430.66;;;15.24;100.00
15382;BME280;7789;51.364;12.358;2023-10-09T07:08:18;100423.81;;;15.31;100.00
15382;BME280;7789;51.364;12.358;2023-10-09T07:13:39;100464.72;;;15.35;100.00
15382;BME280;7789;51.364;12.358;2023-10-09T07:18:43;100463.41;;;15.39;100.00
15382;BME280;7789;51.364;12.358;2023-10-09T07:24:18;100450.47;;;15.45;100.00
15382;BME280;7789;51.364;12.358;2023-10-09T07:29:29;100439.75;;;15.47;100.00
15382;BME280;7789;51.364;12.358;2023-10-09T07:34:50;100436.13;;;15.48;100.00
15382;BME280;7789;51.364;12.358;2023-10-09T07:39:57;100439.94;;;15.53;100.00
15382;BME280;7789;51.364;12.358;2023-10-09T07:45:09;100444.31;;;15.62;100.00
15382;BME280;7789;51.364;12.358;2023-10-09T07:50:36;100455.72;;;15.71;100.00
15382;BME280;7789;51.364;12.358;2023-10-09T07:55:50;100477.53;;;15.81;100.00
15382;BME280;7789;51.364;12.358;2023-10-09T08:00:59;100467.34;;;15.86;100.00
15382;BME280;7789;51.364;12.358;2023-10-09T08:06:30;100483.53;;;15.91;100.00
15382;BME280;7789;51.364;12.358;2023-10-09T08:12:04;100489.16;;;15.96;100.00
15382;BME280;7789;51.364;12.358;2023-10-09T08:17:24;100497.13;;;16.04;100.00
15382;BME280;7789;51.364;12.358;2023-10-09T08:22:32;100499.97;;;16.10;100.00
15382;BME280;7789;51.364;12.358;2023-10-09T08:27:53;100485.28;;;16.16;100.00
15382;BME280;7789;51.364;12.358;2023-10-09T08:33:33;100477.88;;;16.19;100.00
15382;BME280;7789;51.364;12.358;2023-10-09T08:38:47;100487.31;;;16.22;100.00
15382;BME280;7789;51.364;12.358;2023-10-09T08:43:52;100489.09;;;16.21;100.00
15382;BME280;7789;51.364;12.358;2023-10-09T08:48:58;100496.69;;;16.24;100.00
15382;BME280;7789;51.364;12.358;2023-10-09T08:54:03;100492.47;;;16.31;100.00
15382;BME280;7789;51.364;12.358;2023-10-09T08:59:14;100482.13;;;16.38;100.00
15382;BME280;7789;51.364;12.358;2023-10-09T09:04:37;100492.72;;;16.46;100.00
15382;BME280;7789;51.364;12.358;2023-10-09T09:09:54;100483.13;;;16.45;100.00
15382;BME280;7789;51.364;12.358;2023-10-09T09:14:59;100466.16;;;16.47;100.00
15382;BME280;7789;51.364;12.358;2023-10-09T09:20:19;100495.53;;;16.52;100.00
15382;BME280;7789;51.364;12.358;2023-10-09T09:25:39;100498.19;;;16.52;100.00
15382;BME280;7789;51.364;12.358;2023-10-09T09:30:46;100496.88;;;16.56;100.00
15382;BME280;7789;51.364;12.358;2023-10-09T09:35:59;100498.22;;;16.60;100.00
15382;BME280;7789;51.364;12.358;2023-10-09T09:41:06;100478.75;;;16.69;100.00
15382;BME280;7789;51.364;12.358;2023-10-09T09:46:11;100462.25;;;16.75;100.00
15382;BME280;7789;51.364;12.358;2023-10-09T09:51:15;100467.75;;;16.89;100.00
15382;BME280;7789;51.364;12.358;2023-10-09T09:56:24;100452.56;;;16.99;100.00
15382;BME280;7789;51.364;12.358;2023-10-09T10:01:29;100445.47;;;17.16;100.00
15382;BME280;7789;51.364;12.358;2023-10-09T10:06:34;100444.97;;;17.28;100.00
15382;BME280;7789;51.364;12.358;2023-10-09T10:11:44;100418.41;;;17.38;100.00
15382;BME280;7789;51.364;12.358;2023-10-09T10:17:04;100417.88;;;17.50;100.00
15382;BME280;7789;51.364;12.358;2023-10-09T10:22:26;100422.16;;;17.51;100.00
15382;BME280;7789;51.364;12.358;2023-10-09T10:27:34;100409.63;;;17.53;100.00
15382;BME280;7789;51.364;12.358;2023-10-09T10:32:53;100409.78;;;17.52;100.00
15382;BME280;7789;51.364;12.358;2023-10-09T10:37:58;100406.63;;;17.48;100.00
15382;BME280;7789;51.364;12.358;2023-10-09T10:43:16;100392.13;;;17.44;100.00
15382;BME280;7789;51.364;12.358;2023-10-09T10:48:34;100399.41;;;17.42;100.00
15382;BME280;7789;51.364;12.358;2023-10-09T10:53:50;100397.56;;;17.43;100.00
15382;BME280;7789;51.364;12.358;2023-10-09T10:59:15;100413.41;;;17.43;100.00
15382;BME280;7789;51.364;12.358;2023-10-09T11:04:26;100413.59;;;17.41;100.00
15382;BME280;7789;51.364;12.358;2023-10-09T11:09:44;100407.31;;;17.42;100.00
15382;BME280;7789;51.364;12.358;2023-10-09T11:15:04;100404.03;;;17.40;100.00
15382;BME280;7789;51.364;12.358;2023-10-09T11:20:31;100397.09;;;17.39;100.00
15382;BME280;7789;51.364;12.358;2023-10-09T11:25:35;100411.13;;;17.40;100.00
15382;BME280;7789;51.364;12.358;2023-10-09T11:30:42;100410.13;;;17.41;100.00
15382;BME280;7789;51.364;12.358;2023-10-09T11:35:55;100418.06;;;17.41;100.00
15382;BME280;7789;51.364;12.358;2023-10-09T11:41:11;100425.97;;;17.41;100.00
15382;BME280;7789;51.364;12.358;2023-10-09T11:46:22;100423.03;;;17.36;100.00
15382;BME280;7789;51.364;12.358;2023-10-09T11:51:50;100423.00;;;17.28;100.00
15382;BME280;7789;51.364;12.358;2023-10-09T11:57:26;100430.25;;;17.26;100.00
15382;BME280;7789;51.364;12.358;2023-10-09T12:02:35;100418.88;;;17.25;100.00
15382;BME280;7789;51.364;12.358;2023-10-09T12:07:46;100425.97;;;17.25;100.00
15382;BME280;7789;51.364;12.358;2023-10-09T12:12:56;100432.91;;;17.26;100.00
15382;BME280;7789;51.364;12.358;2023-10-09T12:18:02;100430.09;;;17.27;100.00
15382;BME280;7789;51.364;12.358;2023-10-09T12:23:05;100420.84;;;17.31;100.00
15382;BME280;7789;51.364;12.358;2023-10-09T12:28:09;100424.00;;;17.35;100.00
15382;BME280;7789;51.364;12.358;2023-10-09T12:33:15;100419.38;;;17.37;100.00
15382;BME280;7789;51.364;12.358;2023-10-09T12:38:18;100418.91;;;17.41;100.00
15382;BME280;7789;51.364;12.358;2023-10-09T12:43:24;100421.69;;;17.40;100.00
15382;BME280;7789;51.364;12.358;2023-10-09T12:48:31;100419.69;;;17.42;100.00
15382;BME280;7789;51.364;12.358;2023-10-09T12:53:34;100424.00;;;17.43;100.00
15382;BME280;7789;51.364;12.358;2023-10-09T12:58:43;100425.50;;;17.45;100.00
15382;BME280;7789;51.364;12.358;2023-10-09T13:03:56;100413.09;;;17.46;100.00
15382;BME280;7789;51.364;12.358;2023-10-09T13:09:01;100404.00;;;17.48;100.00
15382;BME280;7789;51.364;12.358;2023-10-09T13:14:08;100405.66;;;17.49;100.00
15382;BME280;7789;51.364;12.358;2023-10-09T13:19:21;100394.91;;;17.51;100.00
15382;BME280;7789;51.364;12.358;2023-10-09T13:24:26;100389.94;;;17.56;100.00
15382;BME280;7789;51.364;12.358;2023-10-09T13:29:32;100402.34;;;17.55;100.00
15382;BME280;7789;51.364;12.358;2023-10-09T13:34:37;100411.94;;;17.56;100.00
15382;BME280;7789;51.364;12.358;2023-10-09T13:39:49;100397.88;;;17.56;100.00
15382;BME280;7789;51.364;12.358;2023-10-09T13:44:56;100400.00;;;17.52;100.00
15382;BME280;7789;51.364;12.358;2023-10-09T13:50:01;100404.16;;;17.55;100.00
15382;BME280;7789;51.364;12.358;2023-10-09T13:55:05;100409.63;;;17.53;100.00
15382;BME280;7789;51.364;12.358;2023-10-09T14:00:18;100406.13;;;17.53;100.00
15382;BME280;7789;51.364;12.358;2023-10-09T14:05:36;100406.78;;;17.55;100.00
15382;BME280;7789;51.364;12.358;2023-10-09T14:10:39;100406.78;;;17.55;100.00
15382;BME280;7789;51.364;12.358;2023-10-09T14:15:42;100398.06;;;17.54;100.00
15382;BME280;7789;51.364;12.358;2023-10-09T14:20:49;100404.34;;;17.53;100.00
15382;BME280;7789;51.364;12.358;2023-10-09T14:25:58;100393.91;;;17.52;100.00
15382;BME280;7789;51.364;12.358;2023-10-09T14:31:04;100396.72;;;17.50;100.00
15382;BME280;7789;51.364;12.358;2023-10-09T14:36:15;100396.72;;;17.50;100.00
15382;BME280;7789;51.364;12.358;2023-10-09T14:41:22;100390.63;;;17.50;100.00
15382;BME280;7789;51.364;12.358;2023-10-09T14:46:30;100396.25;;;17.47;100.00
15382;BME280;7789;51.364;12.358;2023-10-09T14:51:35;100395.41;;;17.46;100.00
15382;BME280;7789;51.364;12.358;2023-10-09T14:56:38;100405.84;;;17.48;100.00
15382;BME280;7789;51.364;12.358;2023-10-09T15:01:43;100395.59;;;17.45;100.00
15382;BME280;7789;51.364;12.358;2023-10-09T15:06:47;100402.53;;;17.46;100.00
15382;BME280;7789;51.364;12.358;2023-10-09T15:11:51;100406.00;;;17.46;100.00
15382;BME280;7789;51.364;12.358;2023-10-09T15:16:55;100410.94;;;17.49;100.00
15382;BME280;7789;51.364;12.358;2023-10-09T15:22:01;100404.66;;;17.50;100.00
15382;BME280;7789;51.364;12.358;2023-10-09T15:27:10;100402.00;;;17.50;100.00
15382;BME280;7789;51.364;12.358;2023-10-09T15:32:15;100399.34;;;17.50;100.00
15382;BME280;7789;51.364;12.358;2023-10-09T15:37:26;100416.88;;;17.51;100.00
15382;BME280;7789;51.364;12.358;2023-10-09T15:42:30;100416.88;;;17.51;100.00
15382;BME280;7789;51.364;12.358;2023-10-09T15:47:37;100413.22;;;17.52;100.00
15382;BME280;7789;51.364;12.358;2023-10-09T15:52:51;100414.22;;;17.51;100.00
15382;BME280;7789;51.364;12.358;2023-10-09T15:57:56;100423.00;;;17.52;100.00
15382;BME280;7789;51.364;12.358;2023-10-09T16:03:01;100430.94;;;17.52;100.00
15382;BME280;7789;51.364;12.358;2023-10-09T16:08:07;100429.28;;;17.51;100.00
15382;BME280;7789;51.364;12.358;2023-10-09T16:13:12;100421.34;;;17.51;100.00
15382;BME280;7789;51.364;12.358;2023-10-09T16:18:16;100430.94;;;17.52;100.00
15382;BME280;7789;51.364;12.358;2023-10-09T16:23:24;100428.28;;;17.52;100.00
15382;BME280;7789;51.364;12.358;2023-10-09T16:28:30;100437.38;;;17.49;100.00
15382;BME280;7789;51.364;12.358;2023-10-09T16:33:35;100439.19;;;17.49;100.00
15382;BME280;7789;51.364;12.358;2023-10-09T16:38:41;100449.44;;;17.52;100.00
15382;BME280;7789;51.364;12.358;2023-10-09T16:43:46;100456.53;;;17.51;100.00
15382;BME280;7789;51.364;12.358;2023-10-09T16:48:50;100451.25;;;17.51;100.00
15382;BME280;7789;51.364;12.358;2023-10-09T16:53:59;100454.06;;;17.50;100.00
15382;BME280;7789;51.364;12.358;2023-10-09T16:59:05;100460.00;;;17.52;100.00
15382;BME280;7789;51.364;12.358;2023-10-09T17:04:19;100463.47;;;17.52;100.00
15382;BME280;7789;51.364;12.358;2023-10-09T17:09:27;100460.00;;;17.52;100.00
15382;BME280;7789;51.364;12.358;2023-10-09T17:14:47;100473.38;;;17.50;100.00
15382;BME280;7789;51.364;12.358;2023-10-09T17:19:56;100476.03;;;17.50;100.00
15382;BME280;7789;51.364;12.358;2023-10-09T17:25:07;100481.16;;;17.52;100.00
15382;BME280;7789;51.364;12.358;2023-10-09T17:30:19;100483.16;;;17.50;100.00
15382;BME280;7789;51.364;12.358;2023-10-09T17:35:26;100484.81;;;17.51;100.00
15382;BME280;7789;51.364;12.358;2023-10-09T17:40:33;100489.09;;;17.52;100.00
15382;BME280;7789;51.364;12.358;2023-10-09T17:45:37;100493.53;;;17.51;100.00
15382;BME280;7789;51.364;12.358;2023-10-09T17:50:51;100492.56;;;17.52;100.00
15382;BME280;7789;51.364;12.358;2023-10-09T17:56:02;100477.69;;;17.51;100.00
15382;BME280;7789;51.364;12.358;2023-10-09T18:01:13;100488.25;;;17.51;100.00
15382;BME280;7789;51.364;12.358;2023-10-09T18:06:20;100481.81;;;17.54;100.00
15382;BME280;7789;51.364;12.358;2023-10-09T18:11:27;100479.19;;;17.54;100.00
15382;BME280;7789;51.364;12.358;2023-10-09T18:16:37;100493.06;;;17.56;100.00
15382;BME280;7789;51.364;12.358;2023-10-09T18:21:45;100483.13;;;17.58;100.00
15382;BME280;7789;51.364;12.358;2023-10-09T18:26:53;100485.78;;;17.58;100.00
15382;BME280;7789;51.364;12.358;2023-10-09T18:32:04;100492.91;;;17.57;100.00
15382;BME280;7789;51.364;12.358;2023-10-09T18:37:08;100495.34;;;17.59;100.00
15382;BME280;7789;51.364;12.358;2023-10-09T18:42:15;100493.72;;;17.58;100.00
15382;BME280;7789;51.364;12.358;2023-10-09T18:47:19;100481.00;;;17.53;100.00
15382;BME280;7789;51.364;12.358;2023-10-09T18:52:24;100480.50;;;17.50;100.00
15382;BME280;7789;51.364;12.358;2023-10-09T18:57:29;100480.16;;;17.53;100.00
15382;BME280;7789;51.364;12.358;2023-10-09T19:02:36;100492.72;;;17.51;100.00
15382;BME280;7789;51.364;12.358;2023-10-09T19:07:41;100495.38;;;17.51;100.00
15382;BME280;7789;51.364;12.358;2023-10-09T19:12:47;100502.16;;;17.53;100.00
15382;BME280;7789;51.364;12.358;2023-10-09T19:17:52;100504.81;;;17.53;100.00
15382;BME280;7789;51.364;12.358;2023-10-09T19:22:55;100500.97;;;17.56;100.00
15382;BME280;7789;51.364;12.358;2023-10-09T19:28:03;100513.22;;;17.57;100.00
15382;BME280;7789;51.364;12.358;2023-10-09T19:33:07;100512.41;;;17.56;100.00
15382;BME280;7789;51.364;12.358;2023-10-09T19:38:10;100516.69;;;17.57;100.00
15382;BME280;7789;51.364;12.358;2023-10-09T19:43:15;100522.13;;;17.56;100.00
15382;BME280;7789;51.364;12.358;2023-10-09T19:48:19;100523.78;;;17.57;100.00
15382;BME280;7789;51.364;12.358;2023-10-09T19:53:22;100518.19;;;17.52;100.00
15382;BME280;7789;51.364;12.358;2023-10-09T19:58:28;100519.16;;;17.51;100.00
15382;BME280;7789;51.364;12.358;2023-10-09T20:03:31;100520.97;;;17.50;100.00
15382;BME280;7789;51.364;12.358;2023-10-09T20:08:34;100545.44;;;17.52;100.00
15382;BME280;7789;51.364;12.358;2023-10-09T20:13:40;100547.91;;;17.54;100.00
15382;BME280;7789;51.364;12.358;2023-10-09T20:18:45;100547.91;;;17.54;100.00
15382;BME280;7789;51.364;12.358;2023-10-09T20:23:50;100559.34;;;17.54;100.00
15382;BME280;7789;51.364;12.358;2023-10-09T20:28:55;100551.22;;;17.56;100.00
15382;BME280;7789;51.364;12.358;2023-10-09T20:33:59;100564.44;;;17.56;100.00
15382;BME280;7789;51.364;12.358;2023-10-09T20:39:12;100559.16;;;17.56;100.00
15382;BME280;7789;51.364;12.358;2023-10-09T20:44:28;100567.94;;;17.56;100.00
15382;BME280;7789;51.364;12.358;2023-10-09T20:49:41;100563.78;;;17.54;100.00
15382;BME280;7789;51.364;12.358;2023-10-09T20:54:46;100564.78;;;17.53;100.00
15382;BME280;7789;51.364;12.358;2023-10-09T20:59:53;100570.41;;;17.50;100.00
15382;BME280;7789;51.364;12.358;2023-10-09T21:05:09;100575.34;;;17.53;100.00
15382;BME280;7789;51.364;12.358;2023-10-09T21:10:40;100582.44;;;17.52;100.00
15382;BME280;7789;51.364;12.358;2023-10-09T21:15:54;100588.41;;;17.54;100.00
15382;BME280;7789;51.364;12.358;2023-10-09T21:20:59;100578.84;;;17.53;100.00
15382;BME280;7789;51.364;12.358;2023-10-09T21:26:05;100592.06;;;17.53;100.00
15382;BME280;7789;51.364;12.358;2023-10-09T21:31:17;100592.88;;;17.54;100.00
15382;BME280;7789;51.364;12.358;2023-10-09T21:36:23;100584.13;;;17.53;100.00
15382;BME280;7789;51.364;12.358;2023-10-09T21:41:30;100590.88;;;17.56;100.00
15382;BME280;7789;51.364;12.358;2023-10-09T21:46:46;100602.44;;;17.55;100.00
15382;BME280;7789;51.364;12.358;2023-10-09T21:51:52;100607.59;;;17.56;100.00
15382;BME280;7789;51.364;12.358;2023-10-09T21:56:56;100605.75;;;17.57;100.00
15382;BME280;7789;51.364;12.358;2023-10-09T22:02:01;100604.94;;;17.56;100.00
15382;BME280;7789;51.364;12.358;2023-10-09T22:07:07;100606.59;;;17.57;100.00
15382;BME280;7789;51.364;12.358;2023-10-09T22:12:26;100611.03;;;17.57;100.00
15382;BME280;7789;51.364;12.358;2023-10-09T22:17:34;100609.25;;;17.57;100.00
15382;BME280;7789;51.364;12.358;2023-10-09T22:22:42;100612.22;;;17.54;100.00
15382;BME280;7789;51.364;12.358;2023-10-09T22:27:46;100609.72;;;17.53;100.00
15382;BME280;7789;51.364;12.358;2023-10-09T22:32:55;100613.34;;;17.52;100.00
15382;BME280;7789;51.364;12.358;2023-10-09T22:38:04;100615.34;;;17.50;100.00
15382;BME280;7789;51.364;12.358;2023-10-09T22:43:15;100620.63;;;17.50;100.00
15382;BME280;7789;51.364;12.358;2023-10-09T22:48:23;100616.47;;;17.47;100.00
15382;BME280;7789;51.364;12.358;2023-10-09T22:53:29;100618.47;;;17.45;100.00
15382;BME280;7789;51.364;12.358;2023-10-09T22:58:39;100611.19;;;17.39;100.00
15382;BME280;7789;51.364;12.358;2023-10-09T23:03:55;100610.03;;;17.34;100.00
15382;BME280;7789;51.364;12.358;2023-10-09T23:09:17;100609.97;;;17.26;100.00
15382;BME280;7789;51.364;12.358;2023-10-09T23:14:33;100609.31;;;17.24;100.00
15382;BME280;7789;51.364;12.358;2023-10-09T23:19:39;100614.75;;;17.22;100.00
15382;BME280;7789;51.364;12.358;2023-10-09T23:24:47;100623.97;;;17.18;100.00
15382;BME280;7789;51.364;12.358;2023-10-09T23:29:57;100626.13;;;17.15;100.00
15382;BME280;7789;51.364;12.358;2023-10-09T23:35:09;100632.22;;;17.15;100.00
15382;BME280;7789;51.364;12.358;2023-10-09T23:40:21;100643.47;;;17.17;100.00
15382;BME280;7789;51.364;12.358;2023-10-09T23:45:40;100645.81;;;17.20;100.00
15382;BME280;7789;51.364;12.358;2023-10-09T23:50:45;100644.66;;;17.23;100.00
15382;BME280;7789;51.364;12.358;2023-10-09T23:55:50;100639.38;;;17.23;100.00
